sensor_id;sensor_type;location;lat;lon;timestamp;temperature;humidity
4908;DHT22;64375;51.540;7.364;2024-03-02T00:00:04;13.50;91.90
4908;DHT22;64375;51.540;7.364;2024-03-02T00:02:45;13.50;91.50
4908;DHT22;64375;51.540;7.364;2024-03-02T00:05:14;13.10;89.60
4908;DHT22;64375;51.540;7.364;2024-03-02T00:07:44;12.90;91.10
4908;DHT22;64375;51.540;7.364;2024-03-02T00:10:16;12.80;91.80
4908;DHT22;64375;51.540;7.364;2024-03-02T00:13:02;12.80;93.00
4908;DHT22;64375;51.540;7.364;2024-03-02T00:15:45;12.90;93.20
4908;DHT22;64375;51.540;7.364;2024-03-02T00:18:20;13.10;94.30
4908;DHT22;64375;51.540;7.364;2024-03-02T00:20:55;13.40;95.30
4908;DHT22;64375;51.540;7.364;2024-03-02T00:23:29;13.60;92.70
4908;DHT22;64375;51.540;7.364;2024-03-02T00:26:00;13.60;94.50
4908;DHT22;64375;51.540;7.364;2024-03-02T00:28:39;13.50;92.30
4908;DHT22;64375;51.540;7.364;2024-03-02T00:31:08;13.60;93.00
4908;DHT22;64375;51.540;7.364;2024-03-02T00:33:41;13.70;93.40
4908;DHT22;64375;51.540;7.364;2024-03-02T00:36:10;13.80;94.90
4908;DHT22;64375;51.540;7.364;2024-03-02T00:38:47;14.10;94.70
4908;DHT22;64375;51.540;7.364;2024-03-02T00:41:19;14.20;93.30
4908;DHT22;64375;51.540;7.364;2024-03-02T00:43:59;14.20;94.80
4908;DHT22;64375;51.540;7.364;2024-03-02T00:46:43;14.10;92.90
4908;DHT22;64375;51.540;7.364;2024-03-02T00:49:18;14.10;91.50
4908;DHT22;64375;51.540;7.364;2024-03-02T00:51:49;13.90;92.30
4908;DHT22;64375;51.540;7.364;2024-03-02T00:54:23;13.90;94.90
4908;DHT22;64375;51.540;7.364;2024-03-02T00:56:53;14.10;94.60
4908;DHT22;64375;51.540;7.364;2024-03-02T00:59:23;14.10;93.90
4908;DHT22;64375;51.540;7.364;2024-03-02T01:01:51;14.00;92.20
4908;DHT22;64375;51.540;7.364;2024-03-02T01:04:21;14.10;94.80
4908;DHT22;64375;51.540;7.364;2024-03-02T01:06:49;14.10;94.60
4908;DHT22;64375;51.540;7.364;2024-03-02T01:09:17;14.10;93.90
4908;DHT22;64375;51.540;7.364;2024-03-02T01:11:45;14.10;93.10
4908;DHT22;64375;51.540;7.364;2024-03-02T01:14:13;14.00;94.30
4908;DHT22;64375;51.540;7.364;2024-03-02T01:16:41;14.10;93.90
4908;DHT22;64375;51.540;7.364;2024-03-02T01:19:11;14.00;91.60
4908;DHT22;64375;51.540;7.364;2024-03-02T01:21:43;13.90;92.80
4908;DHT22;64375;51.540;7.364;2024-03-02T01:24:11;13.80;93.00
4908;DHT22;64375;51.540;7.364;2024-03-02T01:26:43;14.00;95.00
4908;DHT22;64375;51.540;7.364;2024-03-02T01:29:13;14.10;94.10
4908;DHT22;64375;51.540;7.364;2024-03-02T01:31:41;14.00;93.70
4908;DHT22;64375;51.540;7.364;2024-03-02T01:34:09;14.10;95.00
4908;DHT22;64375;51.540;7.364;2024-03-02T01:36:40;14.10;92.30
4908;DHT22;64375;51.540;7.364;2024-03-02T01:39:08;14.20;93.60
4908;DHT22;64375;51.540;7.364;2024-03-02T01:41:40;14.00;92.30
4908;DHT22;64375;51.540;7.364;2024-03-02T01:44:14;13.90;91.30
4908;DHT22;64375;51.540;7.364;2024-03-02T01:46:41;13.70;92.40
4908;DHT22;64375;51.540;7.364;2024-03-02T01:49:15;13.70;94.10
4908;DHT22;64375;51.540;7.364;2024-03-02T01:51:50;13.70;93.90
4908;DHT22;64375;51.540;7.364;2024-03-02T01:54:19;13.80;93.80
4908;DHT22;64375;51.540;7.364;2024-03-02T01:56:49;13.70;93.70
4908;DHT22;64375;51.540;7.364;2024-03-02T01:59:19;13.90;95.30
4908;DHT22;64375;51.540;7.364;2024-03-02T02:01:47;13.80;92.10
4908;DHT22;64375;51.540;7.364;2024-03-02T02:04:15;13.70;93.10
4908;DHT22;64375;51.540;7.364;2024-03-02T02:06:44;13.60;93.50
4908;DHT22;64375;51.540;7.364;2024-03-02T02:09:16;13.60;94.00
4908;DHT22;64375;51.540;7.364;2024-03-02T02:11:48;13.60;94.10
4908;DHT22;64375;51.540;7.364;2024-03-02T02:14:16;13.50;92.30
4908;DHT22;64375;51.540;7.364;2024-03-02T02:16:50;13.30;91.60
4908;DHT22;64375;51.540;7.364;2024-03-02T02:19:24;13.40;94.90
4908;DHT22;64375;51.540;7.364;2024-03-02T02:22:02;13.40;93.70
4908;DHT22;64375;51.540;7.364;2024-03-02T02:24:32;13.40;93.80
4908;DHT22;64375;51.540;7.364;2024-03-02T02:27:09;13.30;93.20
4908;DHT22;64375;51.540;7.364;2024-03-02T02:29:42;13.40;95.10
4908;DHT22;64375;51.540;7.364;2024-03-02T02:32:16;13.40;93.70
4908;DHT22;64375;51.540;7.364;2024-03-02T02:34:44;13.50;94.40
4908;DHT22;64375;51.540;7.364;2024-03-02T02:37:13;13.40;92.10
4908;DHT22;64375;51.540;7.364;2024-03-02T02:39:41;13.40;93.50
4908;DHT22;64375;51.540;7.364;2024-03-02T02:42:09;13.30;93.90
4908;DHT22;64375;51.540;7.364;2024-03-02T02:44:37;13.30;94.30
4908;DHT22;64375;51.540;7.364;2024-03-02T02:47:05;13.40;95.80
4908;DHT22;64375;51.540;7.364;2024-03-02T02:49:33;13.40;93.50
4908;DHT22;64375;51.540;7.364;2024-03-02T02:52:03;13.50;95.00
4908;DHT22;64375;51.540;7.364;2024-03-02T02:54:37;13.50;94.30
4908;DHT22;64375;51.540;7.364;2024-03-02T02:57:05;13.50;94.60
4908;DHT22;64375;51.540;7.364;2024-03-02T02:59:33;13.40;93.70
4908;DHT22;64375;51.540;7.364;2024-03-02T03:02:03;13.40;95.40
4908;DHT22;64375;51.540;7.364;2024-03-02T03:04:36;13.50;95.00
4908;DHT22;64375;51.540;7.364;2024-03-02T03:07:07;13.50;94.60
4908;DHT22;64375;51.540;7.364;2024-03-02T03:09:38;13.50;94.10
4908;DHT22;64375;51.540;7.364;2024-03-02T03:12:09;13.70;96.10
4908;DHT22;64375;51.540;7.364;2024-03-02T03:14:37;13.80;96.10
4908;DHT22;64375;51.540;7.364;2024-03-02T03:17:05;14.00;95.90
4908;DHT22;64375;51.540;7.364;2024-03-02T03:19:40;14.00;95.30
4908;DHT22;64375;51.540;7.364;2024-03-02T03:22:08;13.90;95.10
4908;DHT22;64375;51.540;7.364;2024-03-02T03:24:37;13.90;95.60
4908;DHT22;64375;51.540;7.364;2024-03-02T03:27:06;13.90;94.30
4908;DHT22;64375;51.540;7.364;2024-03-02T03:29:34;13.80;92.10
4908;DHT22;64375;51.540;7.364;2024-03-02T03:32:04;13.80;93.70
4908;DHT22;64375;51.540;7.364;2024-03-02T03:34:33;13.70;94.70
4908;DHT22;64375;51.540;7.364;2024-03-02T03:37:01;13.70;95.00
4908;DHT22;64375;51.540;7.364;2024-03-02T03:39:35;13.70;95.20
4908;DHT22;64375;51.540;7.364;2024-03-02T03:42:05;13.80;95.90
4908;DHT22;64375;51.540;7.364;2024-03-02T03:44:39;13.70;94.40
4908;DHT22;64375;51.540;7.364;2024-03-02T03:47:14;13.60;93.80
4908;DHT22;64375;51.540;7.364;2024-03-02T03:49:42;13.60;93.40
4908;DHT22;64375;51.540;7.364;2024-03-02T03:52:10;13.40;94.30
4908;DHT22;64375;51.540;7.364;2024-03-02T03:54:38;13.40;95.10
4908;DHT22;64375;51.540;7.364;2024-03-02T03:57:07;13.40;94.70
4908;DHT22;64375;51.540;7.364;2024-03-02T03:59:35;13.40;95.30
4908;DHT22;64375;51.540;7.364;2024-03-02T04:02:05;13.50;95.70
4908;DHT22;64375;51.540;7.364;2024-03-02T04:04:39;13.60;96.10
4908;DHT22;64375;51.540;7.364;2024-03-02T04:07:10;13.60;95.40
4908;DHT22;64375;51.540;7.364;2024-03-02T04:09:38;13.50;94.80
4908;DHT22;64375;51.540;7.364;2024-03-02T04:12:08;13.50;94.80
4908;DHT22;64375;51.540;7.364;2024-03-02T04:14:36;13.50;94.90
4908;DHT22;64375;51.540;7.364;2024-03-02T04:17:07;13.50;94.50
4908;DHT22;64375;51.540;7.364;2024-03-02T04:19:41;13.50;94.90
4908;DHT22;64375;51.540;7.364;2024-03-02T04:22:11;13.50;93.70
4908;DHT22;64375;51.540;7.364;2024-03-02T04:24:50;13.50;94.90
4908;DHT22;64375;51.540;7.364;2024-03-02T04:27:20;13.50;95.60
4908;DHT22;64375;51.540;7.364;2024-03-02T04:29:48;13.50;94.70
4908;DHT22;64375;51.540;7.364;2024-03-02T04:32:16;13.60;95.70
4908;DHT22;64375;51.540;7.364;2024-03-02T04:34:46;13.70;96.10
4908;DHT22;64375;51.540;7.364;2024-03-02T04:37:29;13.70;96.10
4908;DHT22;64375;51.540;7.364;2024-03-02T04:40:08;13.70;94.10
4908;DHT22;64375;51.540;7.364;2024-03-02T04:42:37;13.80;96.00
4908;DHT22;64375;51.540;7.364;2024-03-02T04:45:06;13.80;96.30
4908;DHT22;64375;51.540;7.364;2024-03-02T04:47:34;13.70;93.30
4908;DHT22;64375;51.540;7.364;2024-03-02T04:50:08;13.70;95.60
4908;DHT22;64375;51.540;7.364;2024-03-02T04:52:37;13.60;93.00
4908;DHT22;64375;51.540;7.364;2024-03-02T04:55:05;13.60;95.60
4908;DHT22;64375;51.540;7.364;2024-03-02T04:58:06;13.70;96.30
4908;DHT22;64375;51.540;7.364;2024-03-02T05:00:37;13.70;95.70
4908;DHT22;64375;51.540;7.364;2024-03-02T05:03:05;13.80;96.10
4908;DHT22;64375;51.540;7.364;2024-03-02T05:05:35;13.80;94.40
4908;DHT22;64375;51.540;7.364;2024-03-02T05:08:17;13.60;93.60
4908;DHT22;64375;51.540;7.364;2024-03-02T05:10:45;13.60;94.30
4908;DHT22;64375;51.540;7.364;2024-03-02T05:13:14;13.60;94.80
4908;DHT22;64375;51.540;7.364;2024-03-02T05:15:50;13.60;95.90
4908;DHT22;64375;51.540;7.364;2024-03-02T05:18:27;13.70;96.20
4908;DHT22;64375;51.540;7.364;2024-03-02T05:20:57;13.70;96.00
4908;DHT22;64375;51.540;7.364;2024-03-02T05:23:26;13.80;96.20
4908;DHT22;64375;51.540;7.364;2024-03-02T05:25:56;13.70;95.50
4908;DHT22;64375;51.540;7.364;2024-03-02T05:28:25;13.70;95.00
4908;DHT22;64375;51.540;7.364;2024-03-02T05:33:46;13.30;93.20
4908;DHT22;64375;51.540;7.364;2024-03-02T05:36:16;13.20;93.50
4908;DHT22;64375;51.540;7.364;2024-03-02T05:38:44;13.20;94.20
4908;DHT22;64375;51.540;7.364;2024-03-02T05:41:17;13.20;95.10
4908;DHT22;64375;51.540;7.364;2024-03-02T05:43:47;13.30;96.10
4908;DHT22;64375;51.540;7.364;2024-03-02T05:46:15;13.40;96.50
4908;DHT22;64375;51.540;7.364;2024-03-02T05:48:49;13.50;96.00
4908;DHT22;64375;51.540;7.364;2024-03-02T05:51:17;13.40;93.60
4908;DHT22;64375;51.540;7.364;2024-03-02T05:53:48;13.30;92.70
4908;DHT22;64375;51.540;7.364;2024-03-02T05:56:19;13.20;94.90
4908;DHT22;64375;51.540;7.364;2024-03-02T05:58:50;13.20;94.80
4908;DHT22;64375;51.540;7.364;2024-03-02T06:01:35;13.20;94.60
4908;DHT22;64375;51.540;7.364;2024-03-02T06:04:04;13.10;94.00
4908;DHT22;64375;51.540;7.364;2024-03-02T06:06:31;13.10;92.60
4908;DHT22;64375;51.540;7.364;2024-03-02T06:09:03;13.00;94.70
4908;DHT22;64375;51.540;7.364;2024-03-02T06:11:33;12.80;92.90
4908;DHT22;64375;51.540;7.364;2024-03-02T06:14:06;12.90;94.30
4908;DHT22;64375;51.540;7.364;2024-03-02T06:16:35;12.90;95.50
4908;DHT22;64375;51.540;7.364;2024-03-02T06:19:03;13.00;95.70
4908;DHT22;64375;51.540;7.364;2024-03-02T06:21:36;13.10;95.50
4908;DHT22;64375;51.540;7.364;2024-03-02T06:24:05;13.20;95.50
4908;DHT22;64375;51.540;7.364;2024-03-02T06:26:33;13.10;93.90
4908;DHT22;64375;51.540;7.364;2024-03-02T06:29:01;13.10;94.50
4908;DHT22;64375;51.540;7.364;2024-03-02T06:31:30;13.10;95.10
4908;DHT22;64375;51.540;7.364;2024-03-02T06:34:01;13.20;95.20
4908;DHT22;64375;51.540;7.364;2024-03-02T06:36:33;13.20;95.70
4908;DHT22;64375;51.540;7.364;2024-03-02T06:39:01;13.20;95.50
4908;DHT22;64375;51.540;7.364;2024-03-02T06:41:32;13.10;93.20
4908;DHT22;64375;51.540;7.364;2024-03-02T06:44:03;12.90;92.30
4908;DHT22;64375;51.540;7.364;2024-03-02T06:46:32;12.80;95.30
4908;DHT22;64375;51.540;7.364;2024-03-02T06:49:00;12.90;95.00
4908;DHT22;64375;51.540;7.364;2024-03-02T06:51:29;12.80;93.40
4908;DHT22;64375;51.540;7.364;2024-03-02T06:54:12;12.80;94.30
4908;DHT22;64375;51.540;7.364;2024-03-02T06:56:40;12.90;95.40
4908;DHT22;64375;51.540;7.364;2024-03-02T06:59:11;12.90;96.40
4908;DHT22;64375;51.540;7.364;2024-03-02T07:02:03;12.90;96.30
4908;DHT22;64375;51.540;7.364;2024-03-02T07:04:34;13.00;96.70
4908;DHT22;64375;51.540;7.364;2024-03-02T07:07:02;12.90;95.30
4908;DHT22;64375;51.540;7.364;2024-03-02T07:09:30;12.90;94.60
4908;DHT22;64375;51.540;7.364;2024-03-02T07:11:58;12.80;94.10
4908;DHT22;64375;51.540;7.364;2024-03-02T07:14:26;12.80;95.00
4908;DHT22;64375;51.540;7.364;2024-03-02T07:17:28;12.90;97.00
4908;DHT22;64375;51.540;7.364;2024-03-02T07:19:57;13.20;97.00
4908;DHT22;64375;51.540;7.364;2024-03-02T07:22:25;13.40;95.30
4908;DHT22;64375;51.540;7.364;2024-03-02T07:24:53;13.40;94.80
4908;DHT22;64375;51.540;7.364;2024-03-02T07:27:21;13.60;94.80
4908;DHT22;64375;51.540;7.364;2024-03-02T07:29:49;13.70;94.80
4908;DHT22;64375;51.540;7.364;2024-03-02T07:32:17;13.70;94.90
4908;DHT22;64375;51.540;7.364;2024-03-02T07:35:05;13.80;94.90
4908;DHT22;64375;51.540;7.364;2024-03-02T07:37:37;13.90;95.20
4908;DHT22;64375;51.540;7.364;2024-03-02T07:40:06;14.30;95.20
4908;DHT22;64375;51.540;7.364;2024-03-02T07:42:40;14.40;94.70
4908;DHT22;64375;51.540;7.364;2024-03-02T07:45:11;14.30;94.10
4908;DHT22;64375;51.540;7.364;2024-03-02T07:47:40;14.20;93.70
4908;DHT22;64375;51.540;7.364;2024-03-02T07:50:10;14.20;95.20
4908;DHT22;64375;51.540;7.364;2024-03-02T07:52:38;14.10;95.10
4908;DHT22;64375;51.540;7.364;2024-03-02T07:55:06;14.20;95.40
4908;DHT22;64375;51.540;7.364;2024-03-02T07:57:38;14.50;95.50
4908;DHT22;64375;51.540;7.364;2024-03-02T08:00:07;14.40;95.40
4908;DHT22;64375;51.540;7.364;2024-03-02T08:02:40;14.30;93.90
4908;DHT22;64375;51.540;7.364;2024-03-02T08:05:10;14.20;94.20
4908;DHT22;64375;51.540;7.364;2024-03-02T08:07:41;14.10;93.00
4908;DHT22;64375;51.540;7.364;2024-03-02T08:10:14;14.30;95.60
4908;DHT22;64375;51.540;7.364;2024-03-02T08:12:42;14.70;95.60
4908;DHT22;64375;51.540;7.364;2024-03-02T08:15:10;15.20;95.20
4908;DHT22;64375;51.540;7.364;2024-03-02T08:17:39;15.20;95.20
4908;DHT22;64375;51.540;7.364;2024-03-02T08:20:18;15.60;94.90
4908;DHT22;64375;51.540;7.364;2024-03-02T08:22:46;15.90;94.60
4908;DHT22;64375;51.540;7.364;2024-03-02T08:25:17;15.80;93.80
4908;DHT22;64375;51.540;7.364;2024-03-02T08:27:48;15.70;94.60
4908;DHT22;64375;51.540;7.364;2024-03-02T08:30:22;15.60;94.80
4908;DHT22;64375;51.540;7.364;2024-03-02T08:32:50;15.50;94.70
4908;DHT22;64375;51.540;7.364;2024-03-02T08:35:22;15.50;95.10
4908;DHT22;64375;51.540;7.364;2024-03-02T08:37:50;15.50;95.00
4908;DHT22;64375;51.540;7.364;2024-03-02T08:40:18;15.90;94.80
4908;DHT22;64375;51.540;7.364;2024-03-02T08:42:47;16.20;94.60
4908;DHT22;64375;51.540;7.364;2024-03-02T08:45:23;16.20;94.50
4908;DHT22;64375;51.540;7.364;2024-03-02T08:47:54;16.40;94.40
4908;DHT22;64375;51.540;7.364;2024-03-02T08:50:26;16.50;94.30
4908;DHT22;64375;51.540;7.364;2024-03-02T08:52:54;16.40;94.40
4908;DHT22;64375;51.540;7.364;2024-03-02T08:55:22;16.30;94.50
4908;DHT22;64375;51.540;7.364;2024-03-02T08:58:05;16.40;94.50
4908;DHT22;64375;51.540;7.364;2024-03-02T09:00:36;16.20;94.70
4908;DHT22;64375;51.540;7.364;2024-03-02T09:03:05;16.10;94.80
4908;DHT22;64375;51.540;7.364;2024-03-02T09:05:37;16.10;94.90
4908;DHT22;64375;51.540;7.364;2024-03-02T09:08:08;16.00;94.70
4908;DHT22;64375;51.540;7.364;2024-03-02T09:10:42;16.10;94.80
4908;DHT22;64375;51.540;7.364;2024-03-02T09:13:10;16.10;95.00
4908;DHT22;64375;51.540;7.364;2024-03-02T09:15:38;16.40;94.90
4908;DHT22;64375;51.540;7.364;2024-03-02T09:18:07;16.50;95.00
4908;DHT22;64375;51.540;7.364;2024-03-02T09:20:36;16.30;95.10
4908;DHT22;64375;51.540;7.364;2024-03-02T09:23:04;16.50;95.10
4908;DHT22;64375;51.540;7.364;2024-03-02T09:25:38;16.70;94.90
4908;DHT22;64375;51.540;7.364;2024-03-02T09:28:06;16.60;95.00
4908;DHT22;64375;51.540;7.364;2024-03-02T09:30:40;16.80;94.90
4908;DHT22;64375;51.540;7.364;2024-03-02T09:33:18;16.90;94.90
4908;DHT22;64375;51.540;7.364;2024-03-02T09:35:55;16.70;95.00
4908;DHT22;64375;51.540;7.364;2024-03-02T09:38:25;16.80;95.20
4908;DHT22;64375;51.540;7.364;2024-03-02T09:40:56;16.90;95.10
4908;DHT22;64375;51.540;7.364;2024-03-02T09:43:24;17.20;95.00
4908;DHT22;64375;51.540;7.364;2024-03-02T09:45:55;17.40;94.60
4908;DHT22;64375;51.540;7.364;2024-03-02T09:48:27;17.40;94.90
4908;DHT22;64375;51.540;7.364;2024-03-02T09:50:59;17.60;94.90
4908;DHT22;64375;51.540;7.364;2024-03-02T09:53:31;17.30;94.90
4908;DHT22;64375;51.540;7.364;2024-03-02T09:56:00;17.50;95.00
4908;DHT22;64375;51.540;7.364;2024-03-02T09:58:28;17.50;94.90
4908;DHT22;64375;51.540;7.364;2024-03-02T10:00:56;17.30;95.10
4908;DHT22;64375;51.540;7.364;2024-03-02T10:03:24;17.60;94.70
4908;DHT22;64375;51.540;7.364;2024-03-02T10:08:43;17.70;94.80
4908;DHT22;64375;51.540;7.364;2024-03-02T10:11:25;17.90;94.80
4908;DHT22;64375;51.540;7.364;2024-03-02T10:14:06;18.00;94.50
4908;DHT22;64375;51.540;7.364;2024-03-02T10:16:36;18.00;94.70
4908;DHT22;64375;51.540;7.364;2024-03-02T10:19:20;17.80;94.50
4908;DHT22;64375;51.540;7.364;2024-03-02T10:21:51;17.80;94.60
4908;DHT22;64375;51.540;7.364;2024-03-02T10:24:21;18.00;94.60
4908;DHT22;64375;51.540;7.364;2024-03-02T10:27:07;18.10;94.60
4908;DHT22;64375;51.540;7.364;2024-03-02T10:29:39;18.10;94.50
4908;DHT22;64375;51.540;7.364;2024-03-02T10:32:11;18.10;94.50
4908;DHT22;64375;51.540;7.364;2024-03-02T10:34:43;17.90;94.70
4908;DHT22;64375;51.540;7.364;2024-03-02T10:37:14;17.60;93.70
4908;DHT22;64375;51.540;7.364;2024-03-02T10:39:46;17.50;94.40
4908;DHT22;64375;51.540;7.364;2024-03-02T10:42:14;17.40;95.00
4908;DHT22;64375;51.540;7.364;2024-03-02T10:44:46;17.50;95.10
4908;DHT22;64375;51.540;7.364;2024-03-02T10:47:24;17.30;94.20
4908;DHT22;64375;51.540;7.364;2024-03-02T10:49:59;17.10;91.50
4908;DHT22;64375;51.540;7.364;2024-03-02T10:52:30;17.00;91.50
4908;DHT22;64375;51.540;7.364;2024-03-02T10:54:58;17.00;90.30
4908;DHT22;64375;51.540;7.364;2024-03-02T10:57:27;16.60;90.40
4908;DHT22;64375;51.540;7.364;2024-03-02T11:00:02;16.50;88.70
4908;DHT22;64375;51.540;7.364;2024-03-02T11:02:31;16.50;87.10
4908;DHT22;64375;51.540;7.364;2024-03-02T11:05:00;16.60;88.00
4908;DHT22;64375;51.540;7.364;2024-03-02T11:07:34;16.60;86.20
4908;DHT22;64375;51.540;7.364;2024-03-02T11:10:04;16.60;85.70
4908;DHT22;64375;51.540;7.364;2024-03-02T11:12:39;16.40;85.60
4908;DHT22;64375;51.540;7.364;2024-03-02T11:15:18;16.40;84.90
4908;DHT22;64375;51.540;7.364;2024-03-02T11:17:47;16.40;85.20
4908;DHT22;64375;51.540;7.364;2024-03-02T11:20:15;16.60;84.10
4908;DHT22;64375;51.540;7.364;2024-03-02T11:22:47;16.80;84.10
4908;DHT22;64375;51.540;7.364;2024-03-02T11:25:24;16.90;83.80
4908;DHT22;64375;51.540;7.364;2024-03-02T11:28:05;16.80;82.50
4908;DHT22;64375;51.540;7.364;2024-03-02T11:30:54;16.80;82.30
4908;DHT22;64375;51.540;7.364;2024-03-02T11:33:27;16.90;81.80
4908;DHT22;64375;51.540;7.364;2024-03-02T11:35:57;16.70;82.20
4908;DHT22;64375;51.540;7.364;2024-03-02T11:38:34;16.80;81.40
4908;DHT22;64375;51.540;7.364;2024-03-02T11:41:07;17.00;81.70
4908;DHT22;64375;51.540;7.364;2024-03-02T11:43:39;16.90;81.50
4908;DHT22;64375;51.540;7.364;2024-03-02T11:46:07;17.10;81.50
4908;DHT22;64375;51.540;7.364;2024-03-02T11:48:36;17.20;81.10
4908;DHT22;64375;51.540;7.364;2024-03-02T11:51:05;17.20;81.40
4908;DHT22;64375;51.540;7.364;2024-03-02T11:53:35;17.20;81.30
4908;DHT22;64375;51.540;7.364;2024-03-02T11:56:14;17.30;81.10
4908;DHT22;64375;51.540;7.364;2024-03-02T11:58:49;17.50;81.30
4908;DHT22;64375;51.540;7.364;2024-03-02T12:01:20;17.60;80.90
4908;DHT22;64375;51.540;7.364;2024-03-02T12:03:48;17.80;80.40
4908;DHT22;64375;51.540;7.364;2024-03-02T12:06:20;18.00;80.10
4908;DHT22;64375;51.540;7.364;2024-03-02T12:08:53;17.90;80.20
4908;DHT22;64375;51.540;7.364;2024-03-02T12:11:21;18.00;80.00
4908;DHT22;64375;51.540;7.364;2024-03-02T12:13:52;17.90;79.80
4908;DHT22;64375;51.540;7.364;2024-03-02T12:16:25;17.80;82.30
4908;DHT22;64375;51.540;7.364;2024-03-02T12:18:54;17.70;84.50
4908;DHT22;64375;51.540;7.364;2024-03-02T12:21:28;17.40;82.20
4908;DHT22;64375;51.540;7.364;2024-03-02T12:23:57;17.30;82.10
4908;DHT22;64375;51.540;7.364;2024-03-02T12:26:25;17.30;81.90
4908;DHT22;64375;51.540;7.364;2024-03-02T12:29:03;17.30;81.70
4908;DHT22;64375;51.540;7.364;2024-03-02T12:31:33;17.30;81.50
4908;DHT22;64375;51.540;7.364;2024-03-02T12:34:02;17.20;81.20
4908;DHT22;64375;51.540;7.364;2024-03-02T12:36:30;17.30;81.10
4908;DHT22;64375;51.540;7.364;2024-03-02T12:39:06;17.30;80.90
4908;DHT22;64375;51.540;7.364;2024-03-02T12:41:36;17.20;81.40
4908;DHT22;64375;51.540;7.364;2024-03-02T12:44:05;17.20;81.70
4908;DHT22;64375;51.540;7.364;2024-03-02T12:46:33;17.20;81.70
4908;DHT22;64375;51.540;7.364;2024-03-02T12:49:08;17.20;83.00
4908;DHT22;64375;51.540;7.364;2024-03-02T12:51:36;17.30;83.80
4908;DHT22;64375;51.540;7.364;2024-03-02T12:54:10;17.80;83.80
4908;DHT22;64375;51.540;7.364;2024-03-02T12:56:38;18.30;84.40
4908;DHT22;64375;51.540;7.364;2024-03-02T12:59:06;18.40;85.00
4908;DHT22;64375;51.540;7.364;2024-03-02T13:01:34;18.70;85.10
4908;DHT22;64375;51.540;7.364;2024-03-02T13:04:05;18.70;85.70
4908;DHT22;64375;51.540;7.364;2024-03-02T13:06:33;18.60;86.60
4908;DHT22;64375;51.540;7.364;2024-03-02T13:09:03;18.40;86.30
4908;DHT22;64375;51.540;7.364;2024-03-02T13:11:32;18.30;87.30
4908;DHT22;64375;51.540;7.364;2024-03-02T13:14:03;18.30;86.90
4908;DHT22;64375;51.540;7.364;2024-03-02T13:16:38;18.10;85.60
4908;DHT22;64375;51.540;7.364;2024-03-02T13:19:13;18.60;87.80
4908;DHT22;64375;51.540;7.364;2024-03-02T13:21:44;18.70;88.00
4908;DHT22;64375;51.540;7.364;2024-03-02T13:24:13;18.80;87.00
4908;DHT22;64375;51.540;7.364;2024-03-02T13:26:42;18.50;82.30
4908;DHT22;64375;51.540;7.364;2024-03-02T13:29:10;18.50;88.00
4908;DHT22;64375;51.540;7.364;2024-03-02T13:31:38;18.50;88.10
4908;DHT22;64375;51.540;7.364;2024-03-02T13:34:06;18.40;85.60
4908;DHT22;64375;51.540;7.364;2024-03-02T13:36:35;18.30;88.80
4908;DHT22;64375;51.540;7.364;2024-03-02T13:39:05;18.30;88.10
4908;DHT22;64375;51.540;7.364;2024-03-02T13:41:36;18.40;89.40
4908;DHT22;64375;51.540;7.364;2024-03-02T13:44:05;18.40;86.50
4908;DHT22;64375;51.540;7.364;2024-03-02T13:46:36;18.30;89.40
4908;DHT22;64375;51.540;7.364;2024-03-02T13:49:04;18.20;89.40
4908;DHT22;64375;51.540;7.364;2024-03-02T13:51:35;18.10;89.40
4908;DHT22;64375;51.540;7.364;2024-03-02T13:54:05;18.00;79.80
4908;DHT22;64375;51.540;7.364;2024-03-02T13:56:37;18.10;88.60
4908;DHT22;64375;51.540;7.364;2024-03-02T13:59:07;18.10;88.30
4908;DHT22;64375;51.540;7.364;2024-03-02T14:01:36;17.90;83.50
4908;DHT22;64375;51.540;7.364;2024-03-02T14:04:07;17.80;87.50
4908;DHT22;64375;51.540;7.364;2024-03-02T14:06:42;17.80;91.80
4908;DHT22;64375;51.540;7.364;2024-03-02T14:09:16;17.90;82.80
4908;DHT22;64375;51.540;7.364;2024-03-02T14:11:49;17.80;89.80
4908;DHT22;64375;51.540;7.364;2024-03-02T14:14:19;17.70;90.90
4908;DHT22;64375;51.540;7.364;2024-03-02T14:16:47;17.60;91.20
4908;DHT22;64375;51.540;7.364;2024-03-02T14:19:21;17.70;96.00
4908;DHT22;64375;51.540;7.364;2024-03-02T14:21:52;17.90;96.70
4908;DHT22;64375;51.540;7.364;2024-03-02T14:24:20;18.20;97.00
4908;DHT22;64375;51.540;7.364;2024-03-02T14:26:50;18.10;95.70
4908;DHT22;64375;51.540;7.364;2024-03-02T14:29:26;18.10;97.50
4908;DHT22;64375;51.540;7.364;2024-03-02T14:31:54;18.10;95.40
4908;DHT22;64375;51.540;7.364;2024-03-02T14:34:22;18.00;97.50
4908;DHT22;64375;51.540;7.364;2024-03-02T14:36:50;18.00;96.90
4908;DHT22;64375;51.540;7.364;2024-03-02T14:39:18;17.80;93.10
4908;DHT22;64375;51.540;7.364;2024-03-02T14:41:49;17.70;95.00
4908;DHT22;64375;51.540;7.364;2024-03-02T14:44:17;17.60;96.50
4908;DHT22;64375;51.540;7.364;2024-03-02T14:46:55;17.60;97.70
4908;DHT22;64375;51.540;7.364;2024-03-02T14:49:25;17.60;97.20
4908;DHT22;64375;51.540;7.364;2024-03-02T14:52:03;17.60;95.60
4908;DHT22;64375;51.540;7.364;2024-03-02T14:54:37;17.50;97.10
4908;DHT22;64375;51.540;7.364;2024-03-02T14:57:08;17.40;96.50
4908;DHT22;64375;51.540;7.364;2024-03-02T14:59:37;17.30;93.80
4908;DHT22;64375;51.540;7.364;2024-03-02T15:02:07;17.20;87.60
4908;DHT22;64375;51.540;7.364;2024-03-02T15:04:41;17.20;96.90
4908;DHT22;64375;51.540;7.364;2024-03-02T15:07:10;17.30;99.90
4908;DHT22;64375;51.540;7.364;2024-03-02T15:09:44;17.30;98.00
4908;DHT22;64375;51.540;7.364;2024-03-02T15:12:12;17.30;99.10
4908;DHT22;64375;51.540;7.364;2024-03-02T15:14:41;17.30;99.90
4908;DHT22;64375;51.540;7.364;2024-03-02T15:17:14;17.30;99.00
4908;DHT22;64375;51.540;7.364;2024-03-02T15:19:43;17.20;93.30
4908;DHT22;64375;51.540;7.364;2024-03-02T15:22:11;17.10;92.40
4908;DHT22;64375;51.540;7.364;2024-03-02T15:24:42;17.00;94.60
4908;DHT22;64375;51.540;7.364;2024-03-02T15:27:13;16.90;96.50
4908;DHT22;64375;51.540;7.364;2024-03-02T15:29:41;17.00;99.80
4908;DHT22;64375;51.540;7.364;2024-03-02T15:32:11;17.10;98.90
4908;DHT22;64375;51.540;7.364;2024-03-02T15:34:46;17.10;99.90
4908;DHT22;64375;51.540;7.364;2024-03-02T15:37:17;17.40;99.90
4908;DHT22;64375;51.540;7.364;2024-03-02T15:39:59;17.40;99.90
4908;DHT22;64375;51.540;7.364;2024-03-02T15:42:35;17.30;99.90
4908;DHT22;64375;51.540;7.364;2024-03-02T15:45:03;17.50;99.90
4908;DHT22;64375;51.540;7.364;2024-03-02T15:47:34;17.50;99.90
4908;DHT22;64375;51.540;7.364;2024-03-02T15:50:07;17.40;99.90
4908;DHT22;64375;51.540;7.364;2024-03-02T15:52:35;17.50;99.90
4908;DHT22;64375;51.540;7.364;2024-03-02T15:55:14;17.50;99.90
4908;DHT22;64375;51.540;7.364;2024-03-02T15:57:42;17.50;99.90
4908;DHT22;64375;51.540;7.364;2024-03-02T16:00:15;17.40;99.90
4908;DHT22;64375;51.540;7.364;2024-03-02T16:02:49;17.40;91.40
4908;DHT22;64375;51.540;7.364;2024-03-02T16:05:24;17.20;93.30
4908;DHT22;64375;51.540;7.364;2024-03-02T16:07:55;17.10;95.90
4908;DHT22;64375;51.540;7.364;2024-03-02T16:10:23;17.00;96.80
4908;DHT22;64375;51.540;7.364;2024-03-02T16:12:54;17.10;99.20
4908;DHT22;64375;51.540;7.364;2024-03-02T16:15:28;17.00;90.20